0TS2 weather

Ultralight International Ultralightport
Haslet, Texas, United States

Public forecast

Using degrees Fahrenheit for public forecast. Weather courtesy of forecast.io.

Closest aviation weather report (METAR) to Ultralight International Ultralightport

Closest report is Fort Worth Alliance Airport, 2.4 nm (4.4 km) NNE. Retrieved 2020/08/06 23:53 UTC (36 minutes ago):

KAFW 062353Z 16015KT 10SM SCT150 SCT250 36/18 A2990 RMK AO2 SLP108 CB DSNT NW MOV E T03560183 10367 20344 58013

Closest aviation forecast (TAF) to Ultralight International Ultralightport

Closest forecast is Fort Worth Alliance Airport, 2.4 nm (4.4 km) NNE. Retrieved 2020-08-07 00:28 UTC (1 minute ago):

TAF KAFW 062326Z 0700/0724 17016KT P6SM FEW250 FM070300 18011KT P6SM SCT120 SCT200 FM071500 17014KT P6SM SCT250